Estações Meteorológicas Convencionais MB

Canivete
Data Hora VISIB (KM) Cobertura(OITAVOS) DD Vento(º) Intensidade (NÓS) TEMP DO AR (º) Temp do Ponto de Orvalho(ºC) Pressão (hPa) TEMP MAX (ºC) TEMP MIN (ºC)
31/08/2022 00:00 4/10 160 12 25.00 19.20 1014.70 30.00
11/08/2022 12:00 20/50 3 29.00 26.40 1013.90
28/07/2022 00:00 4/10 3 27.00 25.30 1011.50
07/07/2022 12:00 20/50 4 28.00 25.30 1013.80
23/05/2022 00:00 4/10 4 27.00 25.70 1011.80
22/05/2022 18:00 20/50 3 31.00 25.70 1010.70
22/05/2022 18:00 20/50 3 31.00 25.70 1010.70
22/05/2022 12:00 20/50 3 26.00 24.70 1013.80
22/04/2022 12:00 20/50 7 120 3 25.00 23.60 1013.00 23.00
13/03/2022 06:00 1/4 40 3 20.00 18.50 1015.20
31/12/2021 12:00 4/10 3 28.00 25.30 1011.80
25/12/2021 18:00 20/50 4 27.00 10.00 10.60
13/12/2021 12:00 20/50 4 30.00 26.10 1009.60
25/11/2021 06:00 20/50 3 27.40 25.70 1010.00
18/10/2021 12:00 4/10 3 30.00 28.70 1003.90
18/10/2021 12:00 4/10 5 28.00 25.30 1006.20
18/10/2021 00:00 0,2/0,5 28.00 26.70 1006.20
17/10/2021 18:00 4/10 3 30.00 28.70 1003.90
17/10/2021 12:00 4/10 6 28.00 25.30 1006.20
17/10/2021 00:00 0,2/0,5 28.00 26.70 1007.40
16/10/2021 18:00 4/10 4 30.00 27.40 1007.00
16/10/2021 12:00 4/10 4 28.00 25.30 1007.40
16/10/2021 00:00 27.00 25.70 1006.20
15/10/2021 18:00 4/10 5 29.00 27.70 1005.10
15/10/2021 12:00 4/10 4 28.00 24.00 1007.40
15/10/2021 00:00 0/0,05 27.00 25.70 1004.50
14/10/2021 18:00 4/10 4 30.00 27.40 1003.90
14/10/2021 12:00 4/10 4 28.00 24.00 1005.20
14/10/2021 00:00 0,2/0,5 27.00 25.70 1004.50
13/10/2021 12:00 4/10 5 28.00 24.00 1005.20
13/10/2021 00:00 0,1 26.00 23.60 1006.60
12/10/2021 18:00 4/10 3 30.00 24.70 1003.90
12/10/2021 12:00 4/10 3 28.00 24.00 1006.20
12/10/2021 00:00 0/0,05 27.00 25.70 1007.50
11/10/2021 18:00 4/10 4 30.00 26.10 1006.20
11/10/2021 12:00 4/10 4 29.00 23.60 1007.30
11/10/2021 12:00 4/10 4 29.00 23.60 1007.30
11/10/2021 00:00 0,2/0,5 26.00 24.70 1007.70
10/10/2021 18:00 4/10 5 30.00 28.70 1007.90
10/10/2021 12:00 4/10 5 29.00 27.70 1006.20
10/10/2021 00:00 28.00 26.70 1006.20
09/10/2021 00:00 0,1 28.00 25.30 1004.30
08/10/2021 18:00 4/10 4 30.00 26.10 1007.00
08/10/2021 12:00 4/10 3 29.00 25.00 1006.20
08/10/2021 00:00 0,2/0,5 28.00 26.70 1004.30
08/10/2021 00:00 0,2/0,5 28.00 26.70 1004.30
07/10/2021 18:00 4 4 30.00 26.10 1003.00
07/10/2021 12:00 4/10 4 28.00 25.30 1006.20
07/10/2021 00:00 0,05/0,1 27.00 25.70 1005.40
06/10/2021 18:00 4/10 3 30.00 26.10 1003.00
06/10/2021 12:00 4/10 28.00 22.50 1006.20
06/10/2021 00:00 0/0,05 28.00 25.30 1005.20
05/10/2021 18:00 4/10 3 30.00 27.40 1003.90
05/10/2021 12:00 4/10 7 28.00 25.30 1006.20
05/10/2021 00:00 0,2/0,5 27.00 26.70 1005.40
04/10/2021 18:00 4/10 6 29.00 25.00 1006.20
04/10/2021 12:00 4/10 6 28.00 25.30 1007.40
04/10/2021 00:00 27.00 26.70 1005.70
03/10/2021 18:00 4/10 4 30.00 26.10 1003.90
03/10/2021 12:00 4/10 4 28.00 24.00 1005.20
03/10/2021 00:00 0/0,05 27.00 24.30 1007.50
02/10/2021 18:00 4/10 5 30.00 24.70 1003.00
02/10/2021 12:00 4/10 4 28.00 24.00 1006.20
02/10/2021 00:00 0/0,05 27.00 25.70 1005.40
01/10/2021 18:00 4/10 2 30.00 26.10 1003.90
01/10/2021 12:00 4/10 4 27.00 25.70 1006.40
01/09/2021 00:00 0/0,05 27.00 25.70 1005.40
30/09/2021 18:00 4/10 1 31.00 25.70 1003.80
30/09/2021 12:00 4/10 2 28.00 25.30 1008.30
30/09/2021 00:00 0,1 26.00 24.70 1006.60 25.00
29/09/2021 18:00 4/10 2 20.00 26.10 1009.90
29/09/2021 12:00 4/10 6 27.00 24.30 1008.50
29/09/2021 00:00 0/0,05 26.00 24.70 1009.50
28/09/2021 18:00 4/10 4 30.00 26.10 1003.90
28/09/2021 12:00 4/10 4 27.00 24.30 1009.40
28/09/2021 00:00 0/0,05 27.00 25.70 1007.50
27/09/2021 18:00 4/10 4 30.00 26.10 1005.90
27/09/2021 12:00 4/10 5 29.00 27.70 1011.30
27/09/2021 00:00 0,2/0,5 28.00 25.30 1009.20
26/09/2021 18:00 4/10 4 30.00 26.10 1007.90
26/09/2021 12:00 4/10 7 29.00 25.00 1010.00
26/09/2021 00:00 0,1 26.00 24.70 1008.60
25/09/2021 18:00 4/10 4 30.00 26.10 1005.90
25/09/2021 12:00 4/10 7 28.00 24.00 1010.30
25/09/2021 00:00 0/0,05 27.00 25.70 1007.50
24/09/2021 18:00 4/10 4 31.00 24.30 1008.70
24/09/2021 12:00 4/10 6 28.00 25.30 1012.30
24/09/2021 00:00 0/0,05 27.00 24.30 1007.50
23/09/2021 18:00 4/10 4 180 30.00 24.70 1009.40
23/09/2021 12:00 4/10 8 28.00 24.00 1009.20
23/09/2021 12:00 4/10 8 28.00 24.00 1009.20
23/09/2021 00:00 0/0,05 27.00 24.30 1007.50
22/09/2021 18:00 4/10 5 30.00 24.70 1007.00
22/09/2021 12:00 4/10 7 29.00 23.60 1009.10
22/09/2021 00:00 0/0,05 27.00 25.70 1010.40
21/09/2021 18:00 4/10 5 30.00 24.70 1008.90
21/09/2021 12:00 4/10 8 28.00 24.00 1007.40
21/09/2021 00:00 27.00 25.70 1009.40
20/09/2021 18:00 4/10 5 30.00 23.20 1007.00
20/09/2021 12:00 4/10 7 28.00 24.00 1010.30